Time;durP1;ratioP1;P1;durP2;ratioP2;P2;SDS_P1;SDS_P2;PMS_P1;PMS_P2;Temp;Humidity;BMP_temperature;BMP_pressure;BME280_temperature;BME280_humidity;BME280_pressure;Samples;Min_cycle;Max_cycle;Signal;HPM_P1;HPM_P2
2024/04/08 00:01:44;;;;;;;6.35;2.50;;;;;;;;;;4993561;28;20189;-51
2024/04/08 00:04:10;;;;;;;4.00;2.40;;;;;;;;;;4995975;28;20526;-50
2024/04/08 00:06:36;;;;;;;3.83;2.20;;;;;;;;;;4996886;28;20591;-50
2024/04/08 00:09:03;;;;;;;4.97;1.88;;;;;;;;;;4998373;28;20503;-51
2024/04/08 00:11:29;;;;;;;3.33;1.88;;;;;;;;;;4994826;28;20443;-50
2024/04/08 00:13:55;;;;;;;4.30;1.80;;;;;;;;;;4995972;28;20189;-50
2024/04/08 00:16:23;;;;;;;5.50;2.10;;;;;;;;;;4994867;28;20185;-50
2024/04/08 00:18:49;;;;;;;3.97;1.73;;;;;;;;;;4994492;28;20204;-50
2024/04/08 00:21:15;;;;;;;5.85;2.10;;;;;;;;;;4999778;28;20177;-50
2024/04/08 00:23:42;;;;;;;4.35;1.95;;;;;;;;;;4994485;28;20196;-51
2024/04/08 00:26:08;;;;;;;7.07;2.20;;;;;;;;;;4995242;28;20586;-51
2024/04/08 00:28:37;;;;;;;2.75;1.73;;;;;;;;;;4993279;28;20196;-51
2024/04/08 00:31:03;;;;;;;3.63;1.63;;;;;;;;;;4995325;28;20230;-47
2024/04/08 00:33:31;;;;;;;4.53;2.08;;;;;;;;;;5003866;28;20461;-48
2024/04/08 00:35:57;;;;;;;8.32;2.08;;;;;;;;;;5003744;28;20564;-48
2024/04/08 00:38:23;;;;;;;7.05;2.00;;;;;;;;;;4993661;28;20349;-47
2024/04/08 00:40:49;;;;;;;3.53;1.73;;;;;;;;;;4992842;28;20184;-48
2024/04/08 00:43:14;;;;;;;6.05;1.90;;;;;;;;;;4995381;28;20607;-48
2024/04/08 00:45:41;;;;;;;3.20;1.83;;;;;;;;;;4999422;28;20189;-48
2024/04/08 00:48:08;;;;;;;4.40;2.00;;;;;;;;;;4996445;28;20193;-48
2024/04/08 00:50:35;;;;;;;2.95;1.75;;;;;;;;;;4999449;28;20471;-48
2024/04/08 00:53:01;;;;;;;3.45;2.00;;;;;;;;;;4998608;28;20280;-48
2024/04/08 00:55:28;;;;;;;7.13;2.28;;;;;;;;;;4996223;28;20295;-50
2024/04/08 00:57:55;;;;;;;5.07;2.17;;;;;;;;;;4989972;28;20177;-50
2024/04/08 01:00:21;;;;;;;5.47;1.60;;;;;;;;;;4996885;28;20208;-49
2024/04/08 01:02:47;;;;;;;3.28;1.80;;;;;;;;;;4993959;28;20232;-49
2024/04/08 01:05:14;;;;;;;3.45;1.80;;;;;;;;;;4998825;28;20188;-49
2024/04/08 01:07:41;;;;;;;4.90;1.88;;;;;;;;;;4995206;28;20268;-48
2024/04/08 01:10:07;;;;;;;5.65;1.67;;;;;;;;;;4992583;28;20196;-48
2024/04/08 01:12:33;;;;;;;5.88;1.48;;;;;;;;;;4994343;28;20188;-49
2024/04/08 01:14:59;;;;;;;4.03;1.85;;;;;;;;;;4996673;28;20212;-50
2024/04/08 01:17:25;;;;;;;4.93;1.77;;;;;;;;;;4998225;28;20246;-51
2024/04/08 01:19:50;;;;;;;5.20;1.95;;;;;;;;;;4992166;28;20564;-50
2024/04/08 01:22:16;;;;;;;5.88;1.90;;;;;;;;;;4993195;28;20181;-48
2024/04/08 01:24:42;;;;;;;4.25;1.75;;;;;;;;;;4998226;28;20173;-48
2024/04/08 01:27:08;;;;;;;5.07;1.90;;;;;;;;;;4994195;28;20205;-48
2024/04/08 01:29:35;;;;;;;3.75;2.08;;;;;;;;;;4993501;28;20200;-48
2024/04/08 01:32:02;;;;;;;3.80;1.95;;;;;;;;;;4994735;28;20759;-48
2024/04/08 01:34:28;;;;;;;4.50;2.05;;;;;;;;;;4998405;28;20208;-48
2024/04/08 01:36:54;;;;;;;4.95;1.88;;;;;;;;;;5003294;28;20192;-49
2024/04/08 01:39:19;;;;;;;4.82;1.88;;;;;;;;;;4992359;28;20177;-51
2024/04/08 01:41:46;;;;;;;7.55;2.25;;;;;;;;;;4993698;28;20285;-50
2024/04/08 01:44:11;;;;;;;2.83;1.35;;;;;;;;;;5000061;28;20180;-49
2024/04/08 01:46:37;;;;;;;4.28;1.83;;;;;;;;;;4992061;28;20765;-49
2024/04/08 01:49:04;;;;;;;7.70;2.35;;;;;;;;;;4997579;28;20740;-48
2024/04/08 01:51:30;;;;;;;4.28;1.90;;;;;;;;;;4992125;28;20223;-48
2024/04/08 01:53:56;;;;;;;7.03;1.88;;;;;;;;;;4993313;28;20292;-49
2024/04/08 01:56:22;;;;;;;3.30;1.67;;;;;;;;;;4993631;28;20301;-49
2024/04/08 01:58:48;;;;;;;6.38;2.00;;;;;;;;;;4993081;28;20660;-49
2024/04/08 02:01:14;;;;;;;4.07;2.00;;;;;;;;;;4995206;28;20200;-49
2024/04/08 02:03:40;;;;;;;4.63;1.77;;;;;;;;;;4994055;28;20181;-49
2024/04/08 02:06:06;;;;;;;5.72;2.10;;;;;;;;;;4992944;28;20456;-49
2024/04/08 02:08:32;;;;;;;4.32;1.70;;;;;;;;;;4990989;28;20201;-48
2024/04/08 02:10:58;;;;;;;5.75;2.30;;;;;;;;;;4993044;28;20196;-49
2024/04/08 02:13:23;;;;;;;3.35;2.03;;;;;;;;;;4994227;28;20260;-48
2024/04/08 02:15:49;;;;;;;7.20;2.35;;;;;;;;;;4995373;28;20274;-49
2024/04/08 02:18:15;;;;;;;4.80;2.05;;;;;;;;;;4993754;28;20358;-49
2024/04/08 02:20:41;;;;;;;6.20;1.92;;;;;;;;;;4992539;28;20195;-49
2024/04/08 02:23:07;;;;;;;6.78;1.98;;;;;;;;;;4990990;28;20193;-49
2024/04/08 02:25:42;;;;;;;5.53;2.15;;;;;;;;;;4998137;28;20193;-49
2024/04/08 02:28:08;;;;;;;9.77;2.20;;;;;;;;;;4992159;28;20473;-50
2024/04/08 02:30:36;;;;;;;3.40;1.95;;;;;;;;;;4992336;28;20203;-49
2024/04/08 02:33:02;;;;;;;7.90;2.30;;;;;;;;;;4991529;28;20284;-48
2024/04/08 02:35:28;;;;;;;6.28;2.08;;;;;;;;;;4992705;28;20205;-49
2024/04/08 02:37:54;;;;;;;3.38;1.90;;;;;;;;;;4995330;28;20224;-49
2024/04/08 02:40:20;;;;;;;3.40;2.03;;;;;;;;;;4991619;28;20185;-49
2024/04/08 02:42:46;;;;;;;1.77;1.63;;;;;;;;;;4993366;28;20280;-49
2024/04/08 02:45:12;;;;;;;5.15;2.00;;;;;;;;;;4996439;28;20181;-49
2024/04/08 02:47:38;;;;;;;6.90;2.17;;;;;;;;;;4993031;28;20268;-49
2024/04/08 02:50:04;;;;;;;4.82;2.03;;;;;;;;;;4993080;28;20850;-49
2024/04/08 02:52:30;;;;;;;6.00;1.98;;;;;;;;;;4998590;28;20495;-49
2024/04/08 02:54:56;;;;;;;8.90;1.98;;;;;;;;;;5000200;28;20213;-49
2024/04/08 02:57:22;;;;;;;4.78;2.17;;;;;;;;;;4996261;28;20556;-50
2024/04/08 02:59:48;;;;;;;7.25;2.10;;;;;;;;;;4994855;28;20201;-49
2024/04/08 03:02:14;;;;;;;6.18;1.83;;;;;;;;;;4994995;28;20201;-49
2024/04/08 03:04:40;;;;;;;3.33;1.90;;;;;;;;;;4990716;28;20189;-48
2024/04/08 03:07:06;;;;;;;5.38;2.22;;;;;;;;;;4995889;28;20204;-48
2024/04/08 03:09:31;;;;;;;3.88;2.08;;;;;;;;;;4995798;28;20580;-48
2024/04/08 03:11:57;;;;;;;4.00;2.17;;;;;;;;;;4995415;28;20193;-38
2024/04/08 03:14:23;;;;;;;4.65;1.98;;;;;;;;;;4995062;28;20264;-38
2024/04/08 03:16:49;;;;;;;6.50;2.38;;;;;;;;;;4995603;28;20449;-37
2024/04/08 03:19:15;;;;;;;7.15;2.20;;;;;;;;;;4997790;28;20181;-38
2024/04/08 03:21:41;;;;;;;9.70;2.13;;;;;;;;;;4996037;28;20181;-37
2024/04/08 03:24:07;;;;;;;4.03;2.20;;;;;;;;;;5001653;28;20185;-44
2024/04/08 03:26:33;;;;;;;5.25;2.05;;;;;;;;;;5006205;28;20483;-39
2024/04/08 03:28:59;;;;;;;6.28;2.10;;;;;;;;;;4994433;28;20511;-39
2024/04/08 03:31:25;;;;;;;4.40;2.08;;;;;;;;;;4995893;28;20189;-38
2024/04/08 03:33:53;;;;;;;4.60;1.95;;;;;;;;;;4995028;28;20521;-42
2024/04/08 03:36:19;;;;;;;4.75;2.40;;;;;;;;;;4995061;28;20203;-38
2024/04/08 03:38:45;;;;;;;3.75;2.10;;;;;;;;;;4994527;28;20210;-45
2024/04/08 03:41:11;;;;;;;7.25;2.38;;;;;;;;;;4997695;28;20241;-40
2024/04/08 03:43:37;;;;;;;4.57;2.17;;;;;;;;;;4995015;28;20188;-37
2024/04/08 03:46:03;;;;;;;10.30;2.15;;;;;;;;;;4994532;28;20221;-35
2024/04/08 03:48:29;;;;;;;10.45;2.05;;;;;;;;;;4994724;28;20193;-40
2024/04/08 03:50:55;;;;;;;6.38;2.30;;;;;;;;;;4993835;28;20196;-40
2024/04/08 03:53:21;;;;;;;6.65;2.38;;;;;;;;;;4994514;28;20189;-40
2024/04/08 03:55:47;;;;;;;6.45;2.13;;;;;;;;;;4996901;28;20243;-40
2024/04/08 03:58:13;;;;;;;7.43;2.38;;;;;;;;;;5001550;28;20173;-40
2024/04/08 04:00:39;;;;;;;6.28;2.10;;;;;;;;;;4995771;28;20181;-40
2024/04/08 04:03:05;;;;;;;7.15;2.22;;;;;;;;;;4993982;28;20181;-40
2024/04/08 04:05:31;;;;;;;5.53;2.35;;;;;;;;;;5001283;28;20463;-40
2024/04/08 04:07:57;;;;;;;6.30;1.90;;;;;;;;;;4995782;28;20193;-40
2024/04/08 04:10:23;;;;;;;9.90;2.10;;;;;;;;;;4995072;28;20196;-40
2024/04/08 04:12:49;;;;;;;13.10;2.30;;;;;;;;;;4994607;28;20481;-40
2024/04/08 04:15:15;;;;;;;13.25;2.55;;;;;;;;;;4995632;28;20213;-42
2024/04/08 04:17:42;;;;;;;12.13;3.00;;;;;;;;;;4999524;28;20579;-43
2024/04/08 04:20:12;;;;;;;7.07;2.88;;;;;;;;;;4993173;28;20191;-43
2024/04/08 04:22:38;;;;;;;9.80;2.75;;;;;;;;;;4993135;28;20182;-43
2024/04/08 04:25:04;;;;;;;5.60;1.90;;;;;;;;;;4993773;28;20274;-43
2024/04/08 04:27:30;;;;;;;12.30;2.08;;;;;;;;;;4994421;28;20193;-43
2024/04/08 04:29:56;;;;;;;8.63;2.70;;;;;;;;;;4994004;28;20196;-38
2024/04/08 04:32:22;;;;;;;10.38;2.55;;;;;;;;;;4997667;28;20271;-45
2024/04/08 04:34:52;;;;;;;7.90;2.10;;;;;;;;;;4994066;28;20287;-41
2024/04/08 04:37:18;;;;;;;10.73;2.15;;;;;;;;;;4999362;28;20489;-39
2024/04/08 04:39:44;;;;;;;10.10;2.10;;;;;;;;;;4994195;28;20208;-37
2024/04/08 04:42:11;;;;;;;11.10;2.60;;;;;;;;;;4993989;28;20208;-45
2024/04/08 04:44:37;;;;;;;6.70;2.80;;;;;;;;;;4998524;28;20264;-43
2024/04/08 04:47:03;;;;;;;11.23;2.92;;;;;;;;;;4994603;28;20280;-43
2024/04/08 04:49:28;;;;;;;14.88;2.85;;;;;;;;;;4994482;28;20711;-43
2024/04/08 04:51:54;;;;;;;10.23;2.75;;;;;;;;;;4991466;28;20196;-43
2024/04/08 04:54:20;;;;;;;12.73;2.20;;;;;;;;;;4994059;28;20607;-43
2024/04/08 04:56:46;;;;;;;9.75;2.30;;;;;;;;;;4987892;28;20208;-43
2024/04/08 04:59:12;;;;;;;10.45;2.63;;;;;;;;;;4992111;28;20489;-43
2024/04/08 05:01:38;;;;;;;6.40;2.67;;;;;;;;;;4993316;28;20718;-43
2024/04/08 05:04:04;;;;;;;13.00;2.72;;;;;;;;;;4996799;28;20193;-42
2024/04/08 05:06:30;;;;;;;11.27;2.63;;;;;;;;;;4993940;28;20304;-43
2024/04/08 05:08:58;;;;;;;12.85;2.30;;;;;;;;;;4991468;28;20260;-43
2024/04/08 05:11:24;;;;;;;8.73;1.90;;;;;;;;;;4995430;28;20177;-43
2024/04/08 05:13:50;;;;;;;8.93;2.10;;;;;;;;;;4991413;28;20190;-43
2024/04/08 05:16:16;;;;;;;6.28;2.25;;;;;;;;;;4992240;28;20520;-43
2024/04/08 05:18:41;;;;;;;9.45;2.22;;;;;;;;;;4990564;28;20208;-43
2024/04/08 05:21:11;;;;;;;4.15;1.75;;;;;;;;;;4997015;28;20186;-43
2024/04/08 05:23:38;;;;;;;12.63;2.10;;;;;;;;;;4992590;28;20619;-43
2024/04/08 05:26:04;;;;;;;8.13;1.90;;;;;;;;;;4993459;28;20923;-43
2024/04/08 05:28:30;;;;;;;10.23;2.00;;;;;;;;;;4992457;28;20224;-43
2024/04/08 05:30:56;;;;;;;10.18;2.28;;;;;;;;;;4992719;28;20620;-43
2024/04/08 05:33:22;;;;;;;5.10;2.10;;;;;;;;;;4991571;28;20478;-43
2024/04/08 05:35:48;;;;;;;8.27;2.17;;;;;;;;;;4989968;28;20221;-43
2024/04/08 05:38:15;;;;;;;8.10;2.30;;;;;;;;;;4997361;28;20213;-43
2024/04/08 05:40:41;;;;;;;9.13;1.92;;;;;;;;;;4993842;28;20205;-43
2024/04/08 05:43:08;;;;;;;6.18;1.95;;;;;;;;;;4991297;28;20188;-43
2024/04/08 05:45:34;;;;;;;7.05;2.15;;;;;;;;;;4992914;28;20282;-43
2024/04/08 05:48:00;;;;;;;8.95;2.10;;;;;;;;;;4999352;28;20181;-43
2024/04/08 05:50:26;;;;;;;8.45;2.55;;;;;;;;;;4991696;28;20189;-43
2024/04/08 05:52:53;;;;;;;7.47;2.10;;;;;;;;;;4990838;28;20958;-43
2024/04/08 05:55:19;;;;;;;9.23;2.55;;;;;;;;;;4991994;28;20589;-43
2024/04/08 05:57:45;;;;;;;7.85;2.35;;;;;;;;;;4993815;28;20300;-43
2024/04/08 06:00:11;;;;;;;10.27;2.45;;;;;;;;;;4991795;28;20189;-43
2024/04/08 06:02:40;;;;;;;7.20;2.58;;;;;;;;;;4992151;28;20243;-43
2024/04/08 06:05:08;;;;;;;6.82;1.88;;;;;;;;;;4991847;28;20272;-43
2024/04/08 06:07:34;;;;;;;6.63;2.65;;;;;;;;;;4992028;28;20193;-43
2024/04/08 06:10:00;;;;;;;7.80;2.30;;;;;;;;;;4991931;28;20188;-43
2024/04/08 06:12:26;;;;;;;4.32;1.83;;;;;;;;;;4994410;28;20475;-43
2024/04/08 06:14:52;;;;;;;7.38;2.25;;;;;;;;;;4992744;28;20643;-43
2024/04/08 06:17:17;;;;;;;10.18;2.28;;;;;;;;;;4992012;28;20189;-43
2024/04/08 06:19:43;;;;;;;4.85;2.15;;;;;;;;;;4989568;28;20192;-43
2024/04/08 06:22:09;;;;;;;10.48;2.50;;;;;;;;;;4990612;28;20454;-43
2024/04/08 06:24:35;;;;;;;9.10;2.42;;;;;;;;;;4992239;28;20189;-42
2024/04/08 06:27:01;;;;;;;5.25;2.05;;;;;;;;;;4996177;28;20189;-43
2024/04/08 06:29:27;;;;;;;7.47;2.50;;;;;;;;;;4996560;28;20616;-43
2024/04/08 06:31:53;;;;;;;4.15;2.22;;;;;;;;;;4999316;28;20193;-43
2024/04/08 06:34:19;;;;;;;5.38;1.67;;;;;;;;;;4995540;28;20300;-43
2024/04/08 06:36:45;;;;;;;6.35;2.10;;;;;;;;;;4996551;28;20193;-43
2024/04/08 06:39:11;;;;;;;8.45;2.20;;;;;;;;;;4994982;28;20244;-43
2024/04/08 06:41:37;;;;;;;7.07;2.05;;;;;;;;;;4995631;28;20196;-43
2024/04/08 06:44:04;;;;;;;4.55;1.67;;;;;;;;;;5004117;28;20445;-43
2024/04/08 06:46:30;;;;;;;7.25;2.78;;;;;;;;;;4996300;28;20545;-43
2024/04/08 06:48:56;;;;;;;7.50;2.20;;;;;;;;;;5003434;28;20192;-43
2024/04/08 06:51:22;;;;;;;9.15;2.40;;;;;;;;;;5003101;28;20264;-43
2024/04/08 06:53:48;;;;;;;5.03;2.53;;;;;;;;;;5003307;28;20280;-43
2024/04/08 06:56:14;;;;;;;4.13;2.03;;;;;;;;;;4996725;28;20291;-43
2024/04/08 06:58:41;;;;;;;5.75;2.30;;;;;;;;;;4997826;28;20508;-43
2024/04/08 07:01:07;;;;;;;6.00;2.20;;;;;;;;;;4996877;28;20216;-43
2024/04/08 07:03:33;;;;;;;4.57;2.10;;;;;;;;;;4995816;28;20585;-43
2024/04/08 07:05:59;;;;;;;5.88;2.00;;;;;;;;;;4996195;28;20189;-43
2024/04/08 07:08:24;;;;;;;5.85;2.03;;;;;;;;;;4996221;28;20243;-43
2024/04/08 07:10:50;;;;;;;5.57;2.00;;;;;;;;;;4993490;28;20189;-43
2024/04/08 07:13:18;;;;;;;7.85;1.98;;;;;;;;;;4995868;28;20216;-43
2024/04/08 07:15:52;;;;;;;7.78;1.95;;;;;;;;;;4995144;28;20213;-42
2024/04/08 07:18:18;;;;;;;5.63;1.70;;;;;;;;;;4995391;28;20216;-43
2024/04/08 07:20:44;;;;;;;4.63;1.90;;;;;;;;;;4993332;28;20486;-43
2024/04/08 07:23:09;;;;;;;4.60;2.10;;;;;;;;;;4995011;28;20190;-42
2024/04/08 07:25:36;;;;;;;4.75;2.47;;;;;;;;;;4994788;28;20223;-43
2024/04/08 07:28:02;;;;;;;6.30;2.03;;;;;;;;;;4993230;28;20191;-43
2024/04/08 07:30:28;;;;;;;5.43;1.98;;;;;;;;;;5002908;28;20184;-43
2024/04/08 07:32:55;;;;;;;8.35;2.10;;;;;;;;;;5002224;28;20208;-43
2024/04/08 07:35:21;;;;;;;7.32;1.92;;;;;;;;;;4993576;28;20488;-43
2024/04/08 07:37:47;;;;;;;4.00;1.67;;;;;;;;;;4991710;28;20173;-43
2024/04/08 07:40:14;;;;;;;6.03;2.30;;;;;;;;;;4995951;28;20513;-43
2024/04/08 07:42:40;;;;;;;8.45;2.17;;;;;;;;;;4996320;28;20183;-43
2024/04/08 07:45:06;;;;;;;6.38;1.65;;;;;;;;;;4993714;28;20184;-43
2024/04/08 07:47:32;;;;;;;4.97;2.05;;;;;;;;;;5005003;28;20599;-43
2024/04/08 07:49:58;;;;;;;7.07;1.92;;;;;;;;;;4996119;28;20198;-43
2024/04/08 07:52:24;;;;;;;8.07;2.63;;;;;;;;;;5003460;28;20203;-43
2024/04/08 07:54:50;;;;;;;7.22;1.70;;;;;;;;;;5000125;28;20212;-43
2024/04/08 07:57:15;;;;;;;6.97;2.00;;;;;;;;;;4994637;28;20185;-43
2024/04/08 07:59:41;;;;;;;5.97;1.92;;;;;;;;;;4992246;28;20185;-43
2024/04/08 08:02:07;;;;;;;4.05;1.92;;;;;;;;;;4992047;28;20479;-43
2024/04/08 08:04:33;;;;;;;7.20;1.83;;;;;;;;;;4996546;28;20883;-43
2024/04/08 08:06:59;;;;;;;6.15;1.67;;;;;;;;;;4994573;28;20203;-43
2024/04/08 08:09:25;;;;;;;2.33;1.50;;;;;;;;;;4993090;28;20221;-43
2024/04/08 08:11:51;;;;;;;6.18;1.77;;;;;;;;;;4993789;28;20185;-43
2024/04/08 08:14:17;;;;;;;4.85;2.13;;;;;;;;;;4996724;28;20196;-43
2024/04/08 08:16:43;;;;;;;6.57;1.85;;;;;;;;;;4994188;28;20185;-43
2024/04/08 08:19:09;;;;;;;5.47;2.38;;;;;;;;;;4994327;28;20185;-43
2024/04/08 08:21:35;;;;;;;7.03;1.80;;;;;;;;;;5002349;28;20476;-44
2024/04/08 08:24:01;;;;;;;4.28;1.92;;;;;;;;;;4994765;28;20185;-43
2024/04/08 08:26:28;;;;;;;6.47;1.77;;;;;;;;;;4995075;28;20189;-43
2024/04/08 08:28:55;;;;;;;6.30;2.05;;;;;;;;;;4993179;28;20173;-43
2024/04/08 08:31:20;;;;;;;5.10;2.00;;;;;;;;;;4992852;28;20261;-43
2024/04/08 08:33:47;;;;;;;10.38;1.77;;;;;;;;;;4992967;28;20185;-43
2024/04/08 08:36:13;;;;;;;4.43;1.92;;;;;;;;;;4992815;28;20213;-43
2024/04/08 08:38:38;;;;;;;4.65;1.73;;;;;;;;;;4994033;28;20549;-43
2024/04/08 08:41:05;;;;;;;8.02;2.00;;;;;;;;;;4992702;28;20473;-43
2024/04/08 08:43:32;;;;;;;6.00;1.95;;;;;;;;;;4992128;28;20185;-43
2024/04/08 08:45:58;;;;;;;7.93;2.20;;;;;;;;;;4993367;28;20185;-43
2024/04/08 08:48:24;;;;;;;7.88;1.83;;;;;;;;;;4992184;28;20224;-43
2024/04/08 08:50:50;;;;;;;9.60;2.05;;;;;;;;;;4992649;28;20632;-43
2024/04/08 08:53:17;;;;;;;5.85;1.70;;;;;;;;;;4993124;28;20727;-43
2024/04/08 08:55:43;;;;;;;11.00;1.80;;;;;;;;;;4992827;28;20205;-43
2024/04/08 08:58:10;;;;;;;6.95;1.73;;;;;;;;;;4992651;28;20421;-43
2024/04/08 09:00:38;;;;;;;4.47;1.52;;;;;;;;;;4996957;28;20181;-43
2024/04/08 09:03:05;;;;;;;5.72;1.50;;;;;;;;;;4998106;28;20573;-43
2024/04/08 09:05:31;;;;;;;5.82;1.92;;;;;;;;;;4991589;28;20213;-43
2024/04/08 09:07:57;;;;;;;8.13;2.05;;;;;;;;;;4997405;28;20229;-43
2024/04/08 09:10:26;;;;;;;6.38;1.90;;;;;;;;;;4992468;28;20189;-43
2024/04/08 09:12:52;;;;;;;7.63;1.70;;;;;;;;;;4994926;28;20172;-43
2024/04/08 09:15:18;;;;;;;7.80;1.63;;;;;;;;;;4997886;28;20216;-43
2024/04/08 09:17:44;;;;;;;8.70;1.88;;;;;;;;;;4994856;28;20480;-43
2024/04/08 09:20:12;;;;;;;5.45;1.85;;;;;;;;;;4993019;28;20514;-43
2024/04/08 09:22:38;;;;;;;8.85;1.58;;;;;;;;;;4993148;28;20268;-43
2024/04/08 09:25:04;;;;;;;7.30;1.80;;;;;;;;;;4998481;28;20264;-43
2024/04/08 09:27:30;;;;;;;6.25;2.00;;;;;;;;;;4994458;28;20195;-43
2024/04/08 09:29:56;;;;;;;8.77;2.10;;;;;;;;;;4990128;28;20669;-43
2024/04/08 09:32:22;;;;;;;8.98;2.08;;;;;;;;;;4992964;28;20192;-43
2024/04/08 09:34:48;;;;;;;9.02;1.80;;;;;;;;;;4992131;28;20208;-43
2024/04/08 09:39:01;;;;;;;7.80;1.77;;;;;;;;;;5433242;26;20559;-43
2024/04/08 09:41:27;;;;;;;10.88;1.90;;;;;;;;;;5398869;26;20541;-43
2024/04/08 09:43:54;;;;;;;6.13;1.65;;;;;;;;;;5398188;26;20328;-43
2024/04/08 09:46:21;;;;;;;7.05;1.92;;;;;;;;;;5410503;26;20231;-43
2024/04/08 09:48:46;;;;;;;8.82;1.75;;;;;;;;;;5399933;26;20327;-43
2024/04/08 09:51:13;;;;;;;6.55;2.03;;;;;;;;;;5397318;26;20276;-43
2024/04/08 09:53:39;;;;;;;4.78;1.63;;;;;;;;;;5401479;26;20542;-43
2024/04/08 09:56:11;;;;;;;5.43;1.52;;;;;;;;;;5399924;26;20233;-43
2024/04/08 09:58:40;;;;;;;9.70;1.98;;;;;;;;;;5396737;26;20243;-43
2024/04/08 10:01:13;;;;;;;10.05;2.42;;;;;;;;;;5389772;26;20228;-43
2024/04/08 10:03:42;;;;;;;6.25;1.90;;;;;;;;;;5401812;26;20232;-43
2024/04/08 10:06:11;;;;;;;9.85;1.92;;;;;;;;;;5398005;26;20271;-43
2024/04/08 10:08:37;;;;;;;12.13;2.20;;;;;;;;;;5394228;26;20250;-43
2024/04/08 10:11:03;;;;;;;8.32;1.63;;;;;;;;;;5389209;26;20233;-43
2024/04/08 10:13:29;;;;;;;9.90;1.98;;;;;;;;;;5399817;26;20229;-43
2024/04/08 10:16:06;;;;;;;17.80;2.38;;;;;;;;;;5398926;26;20279;-43
2024/04/08 10:18:32;;;;;;;9.32;1.58;;;;;;;;;;5393713;26;20240;-43
2024/04/08 10:20:58;;;;;;;8.65;2.20;;;;;;;;;;5400359;26;20612;-43
2024/04/08 10:23:28;;;;;;;7.95;1.67;;;;;;;;;;5391520;26;20234;-43
2024/04/08 10:25:58;;;;;;;6.50;2.17;;;;;;;;;;5398359;26;20296;-43
2024/04/08 10:28:27;;;;;;;10.32;1.85;;;;;;;;;;5399491;26;20288;-43
2024/04/08 10:30:53;;;;;;;10.95;2.40;;;;;;;;;;5397449;26;20249;-43
2024/04/08 10:33:22;;;;;;;10.05;2.03;;;;;;;;;;5400144;26;20233;-43
2024/04/08 10:35:48;;;;;;;11.30;1.95;;;;;;;;;;5394727;26;20249;-43
2024/04/08 10:38:14;;;;;;;12.93;2.50;;;;;;;;;;5387177;26;20238;-43
2024/04/08 10:40:41;;;;;;;9.50;2.28;;;;;;;;;;5393880;26;20237;-43
2024/04/08 10:43:07;;;;;;;9.15;1.83;;;;;;;;;;5397316;26;20905;-43
2024/04/08 10:45:33;;;;;;;7.45;2.40;;;;;;;;;;5383623;26;20237;-43
2024/04/08 10:48:00;;;;;;;6.47;1.63;;;;;;;;;;5394861;26;20338;-43
2024/04/08 10:50:29;;;;;;;15.88;3.20;;;;;;;;;;5394008;26;20220;-43
2024/04/08 10:52:55;;;;;;;10.57;2.17;;;;;;;;;;5359524;26;20554;-43
2024/04/08 10:55:22;;;;;;;9.73;2.10;;;;;;;;;;5380974;26;20323;-43
2024/04/08 10:57:48;;;;;;;12.48;2.25;;;;;;;;;;5360952;26;20242;-43
2024/04/08 11:00:14;;;;;;;6.88;2.35;;;;;;;;;;5368981;26;20281;-43
2024/04/08 11:02:40;;;;;;;9.75;2.65;;;;;;;;;;5375026;26;20327;-43
2024/04/08 11:05:06;;;;;;;12.70;2.38;;;;;;;;;;5375857;26;20222;-43
2024/04/08 11:07:35;;;;;;;8.95;1.92;;;;;;;;;;5379326;26;20507;-43
2024/04/08 11:10:05;;;;;;;11.15;2.33;;;;;;;;;;5358386;26;20233;-43
2024/04/08 11:12:31;;;;;;;9.35;2.95;;;;;;;;;;5379802;26;20250;-43
2024/04/08 11:15:01;;;;;;;15.48;2.47;;;;;;;;;;5379997;26;20534;-43
2024/04/08 11:17:27;;;;;;;13.23;2.58;;;;;;;;;;5378377;26;20230;-43
2024/04/08 11:20:01;;;;;;;13.85;2.97;;;;;;;;;;5365940;26;20476;-47
2024/04/08 11:22:27;;;;;;;19.48;2.60;;;;;;;;;;5377824;26;20226;-43
2024/04/08 11:24:58;;;;;;;12.00;3.03;;;;;;;;;;5376662;26;20232;-43
2024/04/08 11:27:25;;;;;;;14.20;2.60;;;;;;;;;;5376894;26;21612;-43
2024/04/08 11:29:51;;;;;;;13.05;2.58;;;;;;;;;;5369282;26;20320;-43
2024/04/08 11:32:17;;;;;;;19.13;2.92;;;;;;;;;;5380244;26;20230;-47
2024/04/08 11:34:43;;;;;;;10.30;2.33;;;;;;;;;;5380875;26;20334;-42
2024/04/08 11:37:10;;;;;;;10.00;2.17;;;;;;;;;;5375736;26;20238;-43
2024/04/08 11:39:40;;;;;;;18.20;2.40;;;;;;;;;;5388227;26;20612;-43
2024/04/08 11:42:06;;;;;;;7.72;2.85;;;;;;;;;;5366426;26;20301;-42
2024/04/08 11:44:32;;;;;;;15.95;2.55;;;;;;;;;;5372641;26;20233;-43
2024/04/08 11:46:58;;;;;;;15.10;3.72;;;;;;;;;;5375951;26;20238;-43
2024/04/08 11:49:24;;;;;;;10.88;2.10;;;;;;;;;;5365625;26;20495;-43
2024/04/08 11:51:50;;;;;;;12.35;2.42;;;;;;;;;;5370033;26;20242;-42
2024/04/08 11:54:17;;;;;;;10.90;2.15;;;;;;;;;;5382339;26;20237;-43
2024/04/08 11:56:43;;;;;;;12.93;2.67;;;;;;;;;;5360097;26;20246;-42
2024/04/08 11:59:09;;;;;;;8.88;2.08;;;;;;;;;;5375928;26;20792;-43
2024/04/08 12:01:36;;;;;;;9.57;2.45;;;;;;;;;;5363360;26;20621;-43
2024/04/08 12:04:02;;;;;;;14.02;2.78;;;;;;;;;;5383666;26;20234;-42
2024/04/08 12:06:28;;;;;;;14.93;2.42;;;;;;;;;;5369531;26;20233;-43
2024/04/08 12:08:56;;;;;;;13.63;3.00;;;;;;;;;;5367500;26;20234;-43
2024/04/08 12:11:22;;;;;;;15.95;2.78;;;;;;;;;;5373987;26;20518;-43
2024/04/08 12:13:48;;;;;;;14.43;2.47;;;;;;;;;;5369217;26;20292;-43
2024/04/08 12:16:15;;;;;;;17.95;3.00;;;;;;;;;;5365837;26;20477;-43
2024/04/08 12:18:41;;;;;;;16.17;2.20;;;;;;;;;;5381970;26;20476;-43
2024/04/08 12:21:07;;;;;;;6.60;1.83;;;;;;;;;;5371873;26;20551;-43
2024/04/08 12:23:33;;;;;;;7.75;2.50;;;;;;;;;;5377233;26;20330;-43
2024/04/08 12:25:59;;;;;;;12.02;2.80;;;;;;;;;;5377101;26;20234;-43
2024/04/08 12:28:25;;;;;;;10.75;2.22;;;;;;;;;;5370162;26;20327;-43
2024/04/08 12:30:53;;;;;;;10.20;2.25;;;;;;;;;;5377705;26;20242;-43
2024/04/08 12:33:19;;;;;;;7.55;2.05;;;;;;;;;;5378557;26;20234;-43
2024/04/08 12:35:45;;;;;;;13.35;2.47;;;;;;;;;;5385478;26;20283;-43
2024/04/08 12:38:13;;;;;;;15.13;2.38;;;;;;;;;;5390031;26;20343;-43
2024/04/08 12:40:39;;;;;;;12.15;3.05;;;;;;;;;;5381034;26;20226;-43
2024/04/08 12:43:05;;;;;;;11.23;2.47;;;;;;;;;;5378476;26;20666;-43
2024/04/08 12:45:31;;;;;;;16.10;2.65;;;;;;;;;;5379908;26;20305;-43
2024/04/08 12:47:57;;;;;;;9.77;2.20;;;;;;;;;;5380198;26;20233;-43
2024/04/08 12:50:23;;;;;;;15.13;2.13;;;;;;;;;;5374359;26;20237;-43
2024/04/08 12:52:48;;;;;;;5.57;2.63;;;;;;;;;;5376737;26;20439;-43
2024/04/08 12:55:14;;;;;;;10.20;2.78;;;;;;;;;;5378106;26;20289;-43
2024/04/08 12:57:40;;;;;;;9.52;2.63;;;;;;;;;;5374158;26;20234;-43
2024/04/08 13:00:09;;;;;;;14.13;2.17;;;;;;;;;;5375942;26;20581;-43
2024/04/08 13:02:35;;;;;;;13.45;2.88;;;;;;;;;;5364009;26;20652;-43
2024/04/08 13:05:01;;;;;;;11.40;2.25;;;;;;;;;;5388029;26;20229;-43
2024/04/08 13:07:26;;;;;;;13.57;2.70;;;;;;;;;;5357142;26;20272;-43
2024/04/08 13:09:53;;;;;;;8.95;2.25;;;;;;;;;;5377362;26;20272;-44
2024/04/08 13:12:20;;;;;;;10.55;2.65;;;;;;;;;;5373657;26;20441;-43
2024/04/08 13:14:46;;;;;;;11.90;3.00;;;;;;;;;;5382788;26;20229;-43
2024/04/08 13:17:12;;;;;;;8.88;2.30;;;;;;;;;;5396129;26;20283;-43
2024/04/08 13:19:38;;;;;;;9.45;2.30;;;;;;;;;;5378703;26;20387;-43
2024/04/08 13:22:04;;;;;;;9.18;2.25;;;;;;;;;;5374755;26;20237;-43
2024/04/08 13:24:35;;;;;;;14.80;3.58;;;;;;;;;;5362143;26;20273;-43
2024/04/08 13:27:03;;;;;;;9.30;2.38;;;;;;;;;;5366348;26;20273;-43
2024/04/08 13:29:28;;;;;;;18.48;2.45;;;;;;;;;;5356750;26;20334;-43
2024/04/08 13:31:54;;;;;;;12.93;2.53;;;;;;;;;;5377145;26;20229;-43
2024/04/08 13:34:20;;;;;;;9.98;2.08;;;;;;;;;;5382018;26;20450;-43
2024/04/08 13:36:46;;;;;;;6.88;2.03;;;;;;;;;;5386730;26;20375;-43
2024/04/08 13:39:12;;;;;;;8.70;2.35;;;;;;;;;;5374257;26;20229;-43
2024/04/08 13:41:38;;;;;;;8.35;2.40;;;;;;;;;;5379816;26;20613;-43
2024/04/08 13:44:04;;;;;;;10.35;2.20;;;;;;;;;;5373590;26;20656;-43
2024/04/08 13:46:30;;;;;;;7.95;2.17;;;;;;;;;;5393238;26;20237;-43
2024/04/08 13:48:56;;;;;;;11.82;2.10;;;;;;;;;;5366051;26;20285;-43
2024/04/08 13:51:22;;;;;;;9.52;2.15;;;;;;;;;;5373477;26;20237;-43
2024/04/08 13:53:48;;;;;;;13.45;2.42;;;;;;;;;;5376952;26;20562;-47
2024/04/08 13:56:14;;;;;;;9.10;2.17;;;;;;;;;;5376560;26;20303;-46
2024/04/08 13:58:40;;;;;;;15.82;3.25;;;;;;;;;;5383777;26;20225;-45
2024/04/08 14:01:06;;;;;;;10.60;2.25;;;;;;;;;;5370016;26;20254;-42
2024/04/08 14:03:32;;;;;;;10.45;2.03;;;;;;;;;;5367470;26;20283;-42
2024/04/08 14:05:58;;;;;;;8.35;2.40;;;;;;;;;;5365598;26;20237;-43
2024/04/08 14:08:26;;;;;;;13.00;2.47;;;;;;;;;;5373749;26;20311;-42
2024/04/08 14:10:52;;;;;;;14.52;2.67;;;;;;;;;;5360847;26;20712;-42
2024/04/08 14:13:17;;;;;;;12.13;2.65;;;;;;;;;;5352577;26;20234;-41
2024/04/08 14:15:44;;;;;;;9.20;2.00;;;;;;;;;;5362020;26;20271;-41
2024/04/08 14:18:10;;;;;;;12.77;2.72;;;;;;;;;;5356610;26;20350;-41
2024/04/08 14:20:36;;;;;;;14.23;2.67;;;;;;;;;;5363076;26;20678;-42
2024/04/08 14:23:02;;;;;;;10.93;2.63;;;;;;;;;;5366509;26;20238;-41
2024/04/08 14:25:29;;;;;;;10.73;2.10;;;;;;;;;;5365781;26;20241;-41
2024/04/08 14:27:55;;;;;;;7.53;2.30;;;;;;;;;;5384630;26;20663;-41
2024/04/08 14:30:21;;;;;;;10.15;3.20;;;;;;;;;;5358932;26;20230;-42
2024/04/08 14:32:47;;;;;;;12.38;2.35;;;;;;;;;;5368482;26;20302;-41
2024/04/08 14:35:13;;;;;;;6.60;2.28;;;;;;;;;;5375341;26;20283;-42